Glory Trader — HPKO — position and weather

sailwx.info

Track history (hours):
 
Tides and Currents Weather Stations Pressure Air Temp Water Temp Dewpoint Dewpoint Depression Visibility Wind Speed Wind Dir Waves Ship Positions

Glory Trader

Last reported at 2018-Apr-20 01:22 UTC. Time now 2018-Jun-19 20:21 UTC.
Position N 22°22' E 119°57'.
Warning: this ship's position is months out of date.

Length 225 m; draft 6 m.

Type: Cargo ship. MMSI: 353577000.

Date/timePositionNaut miles runAvg speedWind from/ knotsBaromVisibWave heightAir tempDewpointWater temp
2018-Apr-20 01:22N 22°22' E 119°57'513.0
2018-Apr-20 01:00N 22°27' E 119°59'611.9
2018-Apr-20 00:29N 22°33' E 119°59'613.3
2018-Apr-20 00:00N 22°39' E 119°57'713.3
2018-Apr-19 23:31N 22°46' E 119°57'713.1
2018-Apr-19 23:00N 22°52' E 119°57'713.5
2018-Apr-19 22:29N 22°59' E 119°56'713.7
2018-Apr-19 22:00N 23°06' E 119°55'713.4
2018-Apr-19 21:29N 23°12' E 119°55'713.6
2018-Apr-19 20:59N 23°19' E 119°54'613.3
2018-Apr-19 20:30N 23°26' E 119°53'713.2
2018-Apr-19 20:00N 23°32' E 119°53'612.6
2018-Apr-19 19:30N 23°38' E 119°53'611.7
2018-Apr-19 19:00N 23°44' E 119°52'611.3
2018-Apr-19 18:30N 23°50' E 119°52'2011.7
2018-Apr-19 16:48N 24°07' E 120°03'411.6
2018-Apr-19 16:29N 24°10' E 120°06'611.6
2018-Apr-19 16:00N 24°14' E 120°10'612.0
2018-Apr-19 15:30N 24°19' E 120°14'912.0
2018-Apr-19 14:46N 24°26' E 120°20'912.2
2018-Apr-19 14:00N 24°33' E 120°26'612.5
2018-Apr-19 13:30N 24°38' E 120°30'712.2
2018-Apr-19 12:57N 24°44' E 120°34'612.0
2018-Apr-19 12:28N 24°48' E 120°38'611.8
2018-Apr-19 11:58N 24°53' E 120°42'612.1
2018-Apr-19 11:30N 24°57' E 120°46'32212.9
2018-Apr-18 10:31N 30°02' E 122°46'  
Track history (hours):
 
Tides and Currents Weather Stations Pressure Air Temp Water Temp Dewpoint Dewpoint Depression Visibility Wind Speed Wind Dir Waves Ship Positions

Glory Trader

Last reported at 2018-Apr-20 01:22 UTC. Time now 2018-Jun-19 20:21 UTC.
Position N 22°22' E 119°57'.
Warning: this ship's position is months out of date.

Length 225 m; draft 6 m.

Type: Cargo ship. MMSI: 353577000.

Date/timePositionNaut miles runAvg speedWind from/ knotsBaromVisibWave heightAir tempDewpointWater temp
2018-Apr-20 01:22N 22°22' E 119°57'513.0
2018-Apr-20 01:00N 22°27' E 119°59'611.9
2018-Apr-20 00:29N 22°33' E 119°59'613.3
2018-Apr-20 00:00N 22°39' E 119°57'713.3
2018-Apr-19 23:31N 22°46' E 119°57'713.1
2018-Apr-19 23:00N 22°52' E 119°57'713.5
2018-Apr-19 22:29N 22°59' E 119°56'713.7
2018-Apr-19 22:00N 23°06' E 119°55'713.4
2018-Apr-19 21:29N 23°12' E 119°55'713.6
2018-Apr-19 20:59N 23°19' E 119°54'613.3
2018-Apr-19 20:30N 23°26' E 119°53'713.2
2018-Apr-19 20:00N 23°32' E 119°53'612.6
2018-Apr-19 19:30N 23°38' E 119°53'611.7
2018-Apr-19 19:00N 23°44' E 119°52'611.3
2018-Apr-19 18:30N 23°50' E 119°52'2011.7
2018-Apr-19 16:48N 24°07' E 120°03'411.6
2018-Apr-19 16:29N 24°10' E 120°06'611.6
2018-Apr-19 16:00N 24°14' E 120°10'612.0
2018-Apr-19 15:30N 24°19' E 120°14'912.0
2018-Apr-19 14:46N 24°26' E 120°20'912.2
2018-Apr-19 14:00N 24°33' E 120°26'612.5
2018-Apr-19 13:30N 24°38' E 120°30'712.2
2018-Apr-19 12:57N 24°44' E 120°34'612.0
2018-Apr-19 12:28N 24°48' E 120°38'611.8
2018-Apr-19 11:58N 24°53' E 120°42'612.1
2018-Apr-19 11:30N 24°57' E 120°46'32212.9
2018-Apr-18 10:31N 30°02' E 122°46'  

Dump ship's entire track history